Time;durP1;ratioP1;P1;durP2;ratioP2;P2;SDS_P1;SDS_P2;PMS_P1;PMS_P2;Temp;Humidity;BMP_temperature;BMP_pressure;BME280_temperature;BME280_humidity;BME280_pressure;Samples;Min_cycle;Max_cycle;Signal;HPM_P1;HPM_P2
2023/02/10 00:01:39;;;;;;;246.20;222.70;;;;;;;1.81;82.75;103298.44;4999684;28;20447;-71
2023/02/10 00:04:07;;;;;;;245.98;224.15;;;;;;;1.79;83.02;103311.00;4999917;28;20040;-72
2023/02/10 00:06:33;;;;;;;246.98;223.80;;;;;;;1.83;83.00;103306.22;4986013;28;20407;-73
2023/02/10 00:09:00;;;;;;;249.95;227.27;;;;;;;1.88;82.67;103298.69;5001475;28;20411;-72
2023/02/10 00:14:22;;;;;;;246.43;224.27;;;;;;;1.86;82.80;103309.41;4986819;28;21118;-70
2023/02/10 00:16:54;;;;;;;248.15;225.77;;;;;;;2.01;82.76;103298.31;5002495;28;20036;-72
2023/02/10 00:19:22;;;;;;;248.88;226.40;;;;;;;1.98;82.78;103303.91;4979039;28;20046;-72
2023/02/10 00:21:48;;;;;;;251.35;228.40;;;;;;;1.94;82.38;103300.72;5005237;28;20041;-71
2023/02/10 00:24:13;;;;;;;242.85;220.05;;;;;;;1.94;82.60;103298.09;4999831;28;20056;-72
2023/02/10 00:26:39;;;;;;;240.38;217.88;;;;;;;2.07;82.52;103287.16;5003348;28;20077;-73
2023/02/10 00:29:05;;;;;;;241.25;218.90;;;;;;;2.03;82.69;103289.28;5002277;28;20160;-70
2023/02/10 00:31:33;;;;;;;240.77;218.70;;;;;;;2.04;82.81;103290.94;5011523;28;20040;-71
2023/02/10 00:33:59;;;;;;;244.27;221.82;;;;;;;2.09;82.55;103290.47;5008504;28;20079;-73
2023/02/10 00:36:26;;;;;;;241.10;219.07;;;;;;;2.09;82.54;103296.56;5004868;28;20116;-72
2023/02/10 00:38:53;;;;;;;243.43;221.30;;;;;;;2.16;82.38;103302.09;4993004;28;20067;-71
2023/02/10 00:41:21;;;;;;;245.35;223.65;;;;;;;2.31;82.20;103305.06;5009406;28;20037;-72
2023/02/10 00:43:47;;;;;;;241.90;219.55;;;;;;;2.20;82.13;103298.19;4996245;28;20040;-72
2023/02/10 00:46:16;;;;;;;241.07;219.00;;;;;;;2.13;82.22;103302.41;5009661;28;20964;-73
2023/02/10 00:48:42;;;;;;;240.90;218.82;;;;;;;2.19;82.05;103299.16;5005377;28;20095;-73
2023/02/10 00:51:10;;;;;;;239.00;217.27;;;;;;;2.14;82.18;103310.19;4989811;28;20178;-72
2023/02/10 00:53:35;;;;;;;246.10;224.20;;;;;;;2.06;82.34;103315.41;4986607;28;20080;-72
2023/02/10 00:56:02;;;;;;;244.98;223.02;;;;;;;2.06;82.81;103315.41;5005750;28;20121;-72
2023/02/10 00:58:28;;;;;;;238.80;216.27;;;;;;;2.19;82.23;103309.75;4990373;28;20754;-72
2023/02/10 01:00:54;;;;;;;241.57;219.98;;;;;;;2.25;81.96;103306.50;5000079;28;20042;-72
2023/02/10 01:03:21;;;;;;;244.18;222.52;;;;;;;2.33;81.82;103314.50;4972978;28;20042;-72
2023/02/10 01:05:46;;;;;;;240.20;218.73;;;;;;;2.36;81.70;103318.63;5003588;28;20049;-72
2023/02/10 01:08:17;;;;;;;243.95;222.27;;;;;;;2.22;82.08;103312.06;4999825;28;20085;-71
2023/02/10 01:10:43;;;;;;;239.57;217.80;;;;;;;2.14;82.07;103312.00;5005503;28;20048;-72
2023/02/10 01:13:11;;;;;;;240.00;218.85;;;;;;;2.18;82.46;103313.38;5023406;28;20395;-72
2023/02/10 01:15:45;;;;;;;243.88;222.38;;;;;;;2.23;82.24;103310.25;4998349;28;20854;-71
2023/02/10 01:18:11;;;;;;;244.52;222.50;;;;;;;2.16;82.53;103312.66;5007133;28;20073;-72
2023/02/10 01:20:39;;;;;;;235.98;214.63;;;;;;;2.19;82.57;103309.75;5006944;28;20033;-72
2023/02/10 01:23:09;;;;;;;230.82;209.15;;;;;;;2.18;82.20;103316.00;4998526;28;20108;-72
2023/02/10 01:25:36;;;;;;;228.93;207.52;;;;;;;2.26;81.90;103312.63;5001004;28;20038;-72
2023/02/10 01:28:03;;;;;;;240.38;219.75;;;;;;;2.24;82.24;103320.69;4987588;28;20637;-73
2023/02/10 01:30:29;;;;;;;231.65;209.63;;;;;;;2.26;82.14;103315.25;5006600;28;20057;-72
2023/02/10 01:32:55;;;;;;;231.70;210.05;;;;;;;2.30;81.88;103312.13;4989809;28;20465;-72
2023/02/10 01:35:22;;;;;;;231.75;210.43;;;;;;;2.39;81.63;103313.88;4985549;28;20575;-70
2023/02/10 01:37:48;;;;;;;240.23;219.57;;;;;;;2.32;81.84;103318.13;4991053;28;20034;-72
2023/02/10 01:40:14;;;;;;;237.45;217.63;;;;;;;2.56;80.96;103308.72;4989924;28;20434;-72
2023/02/10 01:42:42;;;;;;;238.77;219.00;;;;;;;2.53;81.07;103304.56;5015016;28;20100;-70
2023/02/10 01:45:12;;;;;;;227.30;206.40;;;;;;;2.54;81.21;103300.13;5012766;28;20034;-72
2023/02/10 01:47:40;;;;;;;229.98;209.00;;;;;;;2.52;80.89;103294.16;4983325;28;20041;-72
2023/02/10 01:50:06;;;;;;;242.88;220.52;;;;;;;2.48;81.09;103290.97;5004908;28;20030;-71
2023/02/10 01:52:33;;;;;;;223.32;203.50;;;;;;;2.44;81.13;103290.47;5011223;28;20510;-73
2023/02/10 01:55:07;;;;;;;235.68;213.35;;;;;;;2.47;81.07;103290.16;5002976;28;20088;-72
2023/02/10 01:57:34;;;;;;;232.75;211.57;;;;;;;2.49;81.47;103292.63;4982443;28;20065;-70
2023/02/10 02:00:01;;;;;;;228.93;208.45;;;;;;;2.42;81.38;103303.00;4999163;28;20622;-72
2023/02/10 02:02:39;;;;;;;228.63;207.35;;;;;;;2.47;81.19;103306.00;5005338;28;20113;-71
2023/02/10 02:05:21;;;;;;;235.13;214.35;;;;;;;2.45;81.36;103302.69;5033148;28;20068;-71
2023/02/10 02:07:49;;;;;;;236.35;214.90;;;;;;;2.47;81.46;103305.19;4995927;28;20041;-73
2023/02/10 02:10:15;;;;;;;233.13;211.32;;;;;;;2.52;81.03;103296.81;5005690;28;20044;-71
2023/02/10 02:13:00;;;;;;;228.60;207.68;;;;;;;2.53;81.08;103301.94;5008671;28;20025;-72
2023/02/10 02:15:41;;;;;;;230.48;209.65;;;;;;;2.45;81.08;103302.69;4989583;28;20037;-75
2023/02/10 02:18:21;;;;;;;233.30;212.32;;;;;;;2.49;81.29;103307.66;4985467;28;20033;-70
2023/02/10 02:21:22;;;;;;;232.90;212.35;;;;;;;2.44;81.53;103306.34;5014246;28;20125;-72
2023/02/10 02:24:12;;;;;;;234.02;213.20;;;;;;;2.34;81.88;103300.28;4977933;28;20091;-72
2023/02/10 02:26:55;;;;;;;231.18;210.00;;;;;;;2.34;82.03;103300.28;4983683;28;20104;-71
2023/02/10 02:29:30;;;;;;;;;;;;;;;2.32;81.64;103307.53;5022320;28;20026;-71
2023/02/10 02:32:21;;;;;;;231.73;211.43;;;;;;;2.23;82.22;103305.78;5026694;28;19916;-72
2023/02/10 02:35:09;;;;;;;230.98;210.00;;;;;;;2.08;82.85;103309.94;4971359;28;20116;-73
2023/02/10 02:37:41;;;;;;;231.82;210.90;;;;;;;2.11;82.55;103315.78;4996838;28;20143;-72
2023/02/10 02:40:08;;;;;;;234.85;214.00;;;;;;;2.21;82.41;103315.69;5001477;28;20183;-74
2023/02/10 02:42:34;;;;;;;236.77;215.68;;;;;;;2.15;82.50;103305.72;5002685;28;20124;-72
2023/02/10 02:45:12;;;;;;;232.65;211.52;;;;;;;2.19;82.22;103312.38;5003543;28;20074;-71
2023/02/10 02:48:03;;;;;;;234.98;214.13;;;;;;;2.04;82.58;103312.09;5003138;28;20037;-74
2023/02/10 02:50:32;;;;;;;237.15;216.18;;;;;;;2.09;82.61;103306.31;4983634;28;20030;-72
2023/02/10 02:53:27;;;;;;;227.00;206.73;;;;;;;1.99;82.78;103316.97;4987467;28;20057;-72
2023/02/10 02:56:00;;;;;;;235.20;213.98;;;;;;;1.99;82.78;103322.25;5029992;28;20044;-72
2023/02/10 02:58:43;;;;;;;236.10;215.07;;;;;;;2.10;82.66;103310.63;4999835;28;20029;-73
2023/02/10 03:01:17;;;;;;;229.07;208.55;;;;;;;2.16;82.38;103307.38;5002673;28;20045;-73
2023/02/10 03:04:17;;;;;;;232.85;212.20;;;;;;;2.09;82.69;103303.69;5001112;28;20227;-72
2023/02/10 03:06:44;;;;;;;;;;;;;;;2.12;82.68;103293.66;4969156;28;20042;-72
2023/02/10 03:09:14;;;;;;;237.90;217.00;;;;;;;2.06;82.51;103274.91;4986442;28;20052;-72
2023/02/10 03:11:40;;;;;;;236.07;215.13;;;;;;;2.04;83.06;103287.47;4974379;28;20176;-73
2023/02/10 03:14:06;;;;;;;233.60;212.55;;;;;;;1.98;82.91;103298.63;4985664;28;20255;-73
2023/02/10 03:16:32;;;;;;;239.85;218.27;;;;;;;1.87;83.60;103292.56;5002254;28;20038;-72
2023/02/10 03:18:57;;;;;;;230.18;209.27;;;;;;;1.89;83.13;103293.25;4966990;28;20120;-73
2023/02/10 03:21:23;;;;;;;238.68;217.70;;;;;;;1.77;83.77;103285.72;5008758;28;20073;-73
2023/02/10 03:23:48;;;;;;;237.32;216.25;;;;;;;1.80;84.06;103291.50;4986632;28;20050;-71
2023/02/10 03:26:14;;;;;;;237.05;216.40;;;;;;;1.76;84.21;103297.22;4997287;28;20057;-74
2023/02/10 03:28:39;;;;;;;233.15;211.98;;;;;;;1.65;83.72;103285.06;4988544;28;20444;-74
2023/02/10 03:31:06;;;;;;;232.40;211.15;;;;;;;1.68;84.37;103292.69;4988729;28;20398;-73
2023/02/10 03:33:32;;;;;;;234.43;212.65;;;;;;;1.69;84.23;103291.72;5006706;28;20096;-73
2023/02/10 03:36:01;;;;;;;234.30;214.18;;;;;;;1.72;84.15;103291.44;4988727;28;20038;-72
2023/02/10 03:38:28;;;;;;;234.43;213.43;;;;;;;1.80;84.23;103285.41;5015748;28;20042;-72
2023/02/10 03:40:54;;;;;;;236.57;215.68;;;;;;;1.81;83.84;103287.88;5003779;28;20378;-74
2023/02/10 03:43:21;;;;;;;234.23;212.88;;;;;;;1.69;84.07;103285.59;4992038;28;20034;-73
2023/02/10 03:45:47;;;;;;;236.90;215.32;;;;;;;1.72;84.37;103288.78;4997391;28;20092;-72
2023/02/10 03:48:13;;;;;;;238.00;216.88;;;;;;;1.83;84.30;103293.00;4981606;28;20923;-73
2023/02/10 03:50:39;;;;;;;237.30;216.13;;;;;;;1.75;83.91;103299.03;4998417;28;20045;-74
2023/02/10 03:53:05;;;;;;;237.48;216.07;;;;;;;1.57;84.08;103304.31;4968563;28;20042;-73
2023/02/10 03:55:31;;;;;;;237.82;216.73;;;;;;;1.55;84.62;103315.97;4979146;28;20111;-73
2023/02/10 03:57:56;;;;;;;233.68;213.25;;;;;;;1.55;84.35;103313.34;4985173;28;20037;-72
2023/02/10 04:00:22;;;;;;;237.75;216.82;;;;;;;1.45;84.65;103307.28;5027607;28;20038;-72
2023/02/10 04:02:48;;;;;;;232.98;212.18;;;;;;;1.26;85.01;103310.84;4984910;28;20110;-72
2023/02/10 04:05:14;;;;;;;194.55;152.73;;;;;;;1.13;85.30;103308.53;4984941;28;20577;-72
2023/02/10 04:07:40;;;;;;;239.23;218.00;;;;;;;1.07;85.63;103317.00;4985411;28;20037;-74
2023/02/10 04:10:06;;;;;;;236.07;215.27;;;;;;;1.02;86.22;103316.63;5020388;28;20395;-74
2023/02/10 04:12:34;;;;;;;238.63;217.45;;;;;;;1.12;86.33;103321.88;4984807;28;20033;-72
2023/02/10 04:15:00;;;;;;;237.90;216.82;;;;;;;1.06;86.24;103310.06;5006418;28;20482;-71
2023/02/10 04:17:25;;;;;;;240.02;219.15;;;;;;;1.21;86.06;103321.00;5000911;28;20065;-73
2023/02/10 04:19:51;;;;;;;233.57;212.50;;;;;;;1.32;85.79;103324.28;4988643;28;20104;-73
2023/02/10 04:22:16;;;;;;;236.73;215.25;;;;;;;1.39;85.73;103321.06;4997498;28;20124;-74
2023/02/10 04:24:42;;;;;;;235.70;215.52;;;;;;;1.46;85.46;103327.44;5006538;28;20048;-73
2023/02/10 04:27:08;;;;;;;243.85;221.57;;;;;;;1.33;86.03;103325.94;4994347;28;20043;-72
2023/02/10 04:29:38;;;;;;;236.27;214.30;;;;;;;1.37;86.02;103321.22;4987263;28;20150;-73
2023/02/10 04:32:04;;;;;;;238.48;216.07;;;;;;;1.35;85.71;103328.44;4986535;28;20049;-73
2023/02/10 04:34:30;;;;;;;244.60;221.88;;;;;;;1.33;85.92;103325.13;4985400;28;20034;-73
2023/02/10 04:36:56;;;;;;;238.18;216.15;;;;;;;1.32;86.45;103329.56;4970194;28;20095;-75
2023/02/10 04:39:21;;;;;;;240.13;218.65;;;;;;;1.34;86.54;103338.16;4986716;28;20049;-72
2023/02/10 04:41:47;;;;;;;242.07;219.60;;;;;;;1.35;86.92;103334.56;4993487;28;20030;-73
2023/02/10 04:44:13;;;;;;;232.98;212.00;;;;;;;1.47;85.97;103339.66;4982909;28;20072;-73
2023/02/10 04:46:38;;;;;;;236.02;214.25;;;;;;;1.34;86.45;103337.34;5003807;28;20033;-73
2023/02/10 04:49:04;;;;;;;242.10;219.90;;;;;;;1.31;86.84;103330.56;4998951;28;20495;-71
2023/02/10 04:51:29;;;;;;;235.13;213.52;;;;;;;1.57;85.79;103340.47;5019908;28;20073;-72
2023/02/10 04:53:55;;;;;;;238.43;216.43;;;;;;;1.53;86.10;103331.16;4970862;28;20092;-74
2023/02/10 04:56:21;;;;;;;246.02;223.65;;;;;;;1.50;86.44;103337.56;5000761;28;20034;-73
2023/02/10 04:58:49;;;;;;;242.38;220.45;;;;;;;1.43;86.09;103333.03;4985382;28;20041;-72
2023/02/10 05:01:15;;;;;;;240.23;218.00;;;;;;;1.52;86.91;103332.97;5014633;28;20034;-72
2023/02/10 05:03:40;;;;;;;238.77;216.43;;;;;;;1.53;86.45;103334.63;5003824;28;20407;-72
2023/02/10 05:06:12;;;;;;;240.18;217.77;;;;;;;1.38;86.29;103345.81;5015665;28;20571;-72
2023/02/10 05:08:41;;;;;;;238.82;216.95;;;;;;;1.37;86.83;103350.28;4982612;28;20486;-72
2023/02/10 05:11:12;;;;;;;237.25;214.85;;;;;;;1.38;86.79;103348.47;4989054;28;20041;-72
2023/02/10 05:13:41;;;;;;;241.80;219.65;;;;;;;1.25;87.19;103354.06;5010112;28;20030;-73
2023/02/10 05:16:08;;;;;;;242.05;219.95;;;;;;;1.11;87.23;103349.25;5004619;28;20121;-71
2023/02/10 05:18:34;;;;;;;240.45;218.27;;;;;;;1.04;86.93;103356.91;4996352;28;20057;-73
2023/02/10 05:21:02;;;;;;;240.98;219.27;;;;;;;0.90;87.17;103352.06;5005003;28;20073;-73
2023/02/10 05:23:29;;;;;;;242.82;220.18;;;;;;;0.97;87.29;103361.91;4987867;28;20273;-73
2023/02/10 05:25:55;;;;;;;240.57;217.63;;;;;;;1.05;87.41;103361.19;4990789;28;20406;-73
2023/02/10 05:28:21;;;;;;;236.48;214.57;;;;;;;1.04;87.31;103368.28;4980064;28;20030;-73
2023/02/10 05:30:47;;;;;;;237.00;214.25;;;;;;;0.91;87.63;103372.19;5003133;28;20038;-71
2023/02/10 05:33:12;;;;;;;238.07;216.95;;;;;;;0.83;87.78;103372.91;4997605;28;20045;-72
2023/02/10 05:35:38;;;;;;;237.90;215.55;;;;;;;1.05;88.36;103379.66;5000828;28;20036;-73
2023/02/10 05:38:04;;;;;;;239.60;217.25;;;;;;;1.29;87.75;103380.03;5003507;28;20438;-72
2023/02/10 05:40:30;;;;;;;239.02;217.93;;;;;;;1.31;87.08;103386.00;5001843;28;20045;-71
2023/02/10 05:42:56;;;;;;;236.10;213.57;;;;;;;1.63;86.99;103382.97;5005048;28;20038;-71
2023/02/10 05:45:22;;;;;;;235.73;214.15;;;;;;;1.68;86.75;103381.69;4993774;28;20034;-72
2023/02/10 05:47:48;;;;;;;238.57;216.65;;;;;;;1.74;86.60;103371.34;5002001;28;20122;-72
2023/02/10 05:50:13;;;;;;;234.63;213.25;;;;;;;1.85;86.10;103383.56;5002484;28;20033;-72
2023/02/10 05:52:40;;;;;;;239.73;218.05;;;;;;;1.75;86.26;103380.13;5002451;28;20049;-72
2023/02/10 05:55:06;;;;;;;240.80;218.93;;;;;;;1.84;86.44;103387.19;5000833;28;20108;-72
2023/02/10 05:57:32;;;;;;;240.73;217.88;;;;;;;1.91;86.18;103391.72;4998180;28;20029;-73
2023/02/10 05:59:58;;;;;;;236.05;213.85;;;;;;;1.86;86.09;103386.03;5020203;28;20038;-71
2023/02/10 06:02:24;;;;;;;234.85;212.60;;;;;;;1.92;86.03;103390.75;5001741;28;20722;-72
2023/02/10 06:04:50;;;;;;;237.27;215.55;;;;;;;1.91;86.17;103389.09;5005456;28;20037;-72
2023/02/10 06:07:16;;;;;;;240.68;218.40;;;;;;;1.94;86.29;103379.19;4980630;28;20077;-71
2023/02/10 06:09:43;;;;;;;235.00;212.98;;;;;;;1.91;86.13;103386.44;5007127;28;20787;-75
2023/02/10 06:12:09;;;;;;;238.55;217.00;;;;;;;2.02;85.72;103390.69;5016410;28;20041;-72
2023/02/10 06:14:36;;;;;;;240.32;217.95;;;;;;;2.02;85.72;103379.28;4987538;28;20120;-71
2023/02/10 06:17:02;;;;;;;240.85;218.90;;;;;;;1.94;85.65;103389.75;5005842;28;20116;-74
2023/02/10 06:19:29;;;;;;;239.98;217.77;;;;;;;1.99;85.62;103390.16;4999017;28;20034;-73
2023/02/10 06:21:55;;;;;;;233.80;212.43;;;;;;;1.96;86.01;103401.00;5001161;28;20147;-72
2023/02/10 06:24:20;;;;;;;235.02;213.98;;;;;;;2.02;85.72;103401.25;4999522;28;20026;-74
2023/02/10 06:26:46;;;;;;;235.05;213.50;;;;;;;2.01;85.29;103404.03;5002849;28;20388;-73
2023/02/10 06:29:11;;;;;;;233.32;211.80;;;;;;;2.05;85.41;103400.13;4980270;28;20125;-73
2023/02/10 06:31:37;;;;;;;231.70;209.75;;;;;;;2.05;85.41;103408.06;4999703;28;20038;-72
2023/02/10 06:34:02;;;;;;;233.63;211.07;;;;;;;2.14;85.86;103420.38;4984729;28;20380;-71
2023/02/10 06:36:28;;;;;;;255.10;233.05;;;;;;;2.06;85.01;103420.31;4996104;28;20042;-71
2023/02/10 06:38:54;;;;;;;245.27;223.82;;;;;;;2.11;85.54;103420.69;5007739;28;20215;-73
2023/02/10 06:41:19;;;;;;;251.82;229.38;;;;;;;2.13;85.34;103422.22;5001809;28;20045;-72
2023/02/10 06:43:45;;;;;;;249.57;226.00;;;;;;;2.17;85.50;103426.22;4998706;28;20037;-73
2023/02/10 06:46:12;;;;;;;241.95;219.43;;;;;;;2.21;85.18;103428.56;5001562;28;20120;-72
2023/02/10 06:48:38;;;;;;;242.85;220.68;;;;;;;2.15;85.13;103422.06;5004226;28;20030;-72
2023/02/10 06:51:06;;;;;;;244.35;221.65;;;;;;;2.08;85.58;103418.34;4984399;28;20527;-74
2023/02/10 06:53:32;;;;;;;243.63;220.70;;;;;;;2.08;85.75;103420.97;5002846;28;20037;-72
2023/02/10 06:55:58;;;;;;;238.73;215.77;;;;;;;2.11;85.24;103437.38;4986362;28;20037;-71
2023/02/10 06:58:24;;;;;;;240.43;217.65;;;;;;;2.23;85.22;103427.41;4998302;28;20046;-72
2023/02/10 07:00:49;;;;;;;238.98;216.57;;;;;;;2.14;85.48;103433.59;4998630;28;20034;-73
2023/02/10 07:03:15;;;;;;;243.48;220.50;;;;;;;2.17;85.05;103441.25;5000349;28;20133;-72
2023/02/10 07:05:41;;;;;;;242.68;220.13;;;;;;;2.18;85.07;103435.00;5000953;28;20038;-72
2023/02/10 07:08:07;;;;;;;245.63;222.63;;;;;;;2.16;85.16;103439.56;5003902;28;20040;-71
2023/02/10 07:10:32;;;;;;;249.77;226.07;;;;;;;2.12;85.41;103444.34;5002957;28;20026;-72
2023/02/10 07:12:58;;;;;;;246.77;224.32;;;;;;;2.25;85.22;103446.63;5005655;28;20407;-73
2023/02/10 07:15:25;;;;;;;245.52;221.52;;;;;;;2.16;85.40;103450.16;5003157;28;20034;-71
2023/02/10 07:17:50;;;;;;;245.57;222.27;;;;;;;2.21;85.02;103452.34;5005011;28;20030;-72
2023/02/10 07:20:18;;;;;;;248.65;225.20;;;;;;;2.17;85.38;103457.13;5002820;28;20453;-72
2023/02/10 07:22:43;;;;;;;246.05;222.15;;;;;;;2.14;85.56;103457.41;5003639;28;20026;-73
2023/02/10 07:25:09;;;;;;;247.38;224.05;;;;;;;2.21;85.32;103466.41;5003408;28;20072;-72
2023/02/10 07:27:35;;;;;;;246.82;223.05;;;;;;;2.16;85.36;103461.56;5003198;28;20057;-73
2023/02/10 07:30:00;;;;;;;252.00;227.85;;;;;;;2.14;85.48;103462.69;4998900;28;20038;-73
2023/02/10 07:32:26;;;;;;;247.45;224.13;;;;;;;2.25;85.42;103466.97;4986775;28;20046;-73
2023/02/10 07:34:51;;;;;;;250.10;227.38;;;;;;;2.21;85.41;103457.66;4998205;28;20061;-73
2023/02/10 07:37:17;;;;;;;246.90;222.77;;;;;;;2.22;85.09;103454.84;4997345;28;20568;-72
2023/02/10 07:39:43;;;;;;;252.40;228.57;;;;;;;2.23;85.39;103467.09;4984975;28;20042;-73
2023/02/10 07:42:08;;;;;;;251.10;227.60;;;;;;;2.25;85.50;103466.97;4997127;28;20037;-72
2023/02/10 07:44:54;;;;;;;245.38;221.68;;;;;;;2.28;85.24;103470.13;4985408;28;20539;-74
2023/02/10 07:47:19;;;;;;;244.10;220.98;;;;;;;2.29;84.86;103460.38;4998648;28;20041;-72
2023/02/10 07:49:48;;;;;;;247.02;223.85;;;;;;;2.31;84.60;103464.56;4998758;28;20030;-72
2023/02/10 07:52:14;;;;;;;246.80;223.50;;;;;;;2.36;84.53;103470.22;5002220;28;20100;-71
2023/02/10 07:54:39;;;;;;;246.20;223.43;;;;;;;2.41;84.54;103470.59;5001829;28;20447;-71
2023/02/10 07:57:05;;;;;;;241.30;218.82;;;;;;;2.45;84.27;103474.63;4998692;28;20448;-70
2023/02/10 07:59:30;;;;;;;246.93;223.90;;;;;;;2.50;84.53;103474.16;5015233;28;20037;-70
2023/02/10 08:01:56;;;;;;;242.60;220.43;;;;;;;2.58;83.80;103476.09;5000033;28;20065;-72
2023/02/10 08:04:22;;;;;;;247.63;224.55;;;;;;;2.53;84.09;103468.59;4995539;28;20034;-73
2023/02/10 08:06:47;;;;;;;248.07;225.20;;;;;;;2.57;84.30;103469.09;4978770;28;20062;-72
2023/02/10 08:09:17;;;;;;;241.68;219.38;;;;;;;2.63;83.97;103468.50;4995802;28;20092;-72
2023/02/10 08:11:44;;;;;;;243.50;220.70;;;;;;;2.67;83.50;103464.59;5000752;28;20034;-72
2023/02/10 08:14:09;;;;;;;241.32;218.65;;;;;;;2.76;83.58;103462.84;4999397;28;20042;-73
2023/02/10 08:16:35;;;;;;;245.15;221.35;;;;;;;2.76;83.66;103460.22;4979422;28;20133;-72
2023/02/10 08:19:00;;;;;;;241.00;219.27;;;;;;;2.92;83.45;103466.50;5000863;28;20041;-71
2023/02/10 08:21:26;;;;;;;243.13;220.65;;;;;;;3.07;82.64;103471.25;4982762;28;20037;-72
2023/02/10 08:23:54;;;;;;;246.30;224.07;;;;;;;3.32;82.01;103472.25;4984101;28;20207;-72
2023/02/10 08:26:22;;;;;;;234.00;212.15;;;;;;;3.28;82.22;103477.03;4981626;28;20057;-71
2023/02/10 08:28:47;;;;;;;244.30;223.15;;;;;;;3.30;81.67;103464.47;4999569;28;20030;-72
2023/02/10 08:31:13;;;;;;;232.60;210.00;;;;;;;3.42;81.88;103475.66;4987888;28;20037;-72
2023/02/10 08:33:41;;;;;;;230.77;208.73;;;;;;;3.32;81.41;103467.81;5000625;28;20446;-72
2023/02/10 08:36:09;;;;;;;230.20;208.68;;;;;;;3.27;82.08;103465.63;4997889;28;20045;-70
2023/02/10 08:38:36;;;;;;;244.38;222.65;;;;;;;3.22;82.10;103473.19;4998578;28;20034;-70
2023/02/10 08:41:02;;;;;;;231.05;208.25;;;;;;;3.26;82.29;103465.78;5000167;28;20037;-73
2023/02/10 08:43:28;;;;;;;230.68;208.40;;;;;;;3.19;82.32;103476.16;5021286;28;20041;-72
2023/02/10 08:45:59;;;;;;;239.80;218.85;;;;;;;3.22;82.54;103475.81;4984860;28;20050;-69
2023/02/10 08:48:25;;;;;;;230.45;208.43;;;;;;;3.17;82.31;103456.09;4998895;28;20042;-71
2023/02/10 08:50:53;;;;;;;229.82;207.73;;;;;;;3.29;82.02;103462.81;4984523;28;20511;-73
2023/02/10 08:53:20;;;;;;;246.70;224.60;;;;;;;3.39;81.91;103468.03;5001914;28;20033;-72
2023/02/10 08:55:58;;;;;;;230.02;207.60;;;;;;;3.45;81.86;103476.16;5000003;28;20713;-72
2023/02/10 08:58:23;;;;;;;243.93;222.35;;;;;;;3.66;81.51;103472.31;5001723;28;20025;-71
2023/02/10 09:00:49;;;;;;;231.60;209.05;;;;;;;3.61;81.13;103474.63;5002012;28;20037;-72
2023/02/10 09:03:14;;;;;;;228.45;206.68;;;;;;;3.71;80.78;103485.91;4986661;28;20034;-73
2023/02/10 09:05:40;;;;;;;232.77;210.13;;;;;;;3.66;80.80;103482.91;5003286;28;20046;-73
2023/02/10 09:08:08;;;;;;;229.77;207.82;;;;;;;3.50;81.58;103489.78;4992842;28;20089;-72
2023/02/10 09:10:34;;;;;;;232.60;209.95;;;;;;;3.61;81.04;103490.50;5037187;28;20030;-73
2023/02/10 09:12:59;;;;;;;245.00;223.13;;;;;;;3.49;81.36;103493.41;5018384;28;20426;-72
2023/02/10 09:15:25;;;;;;;231.25;209.65;;;;;;;3.48;81.94;103494.41;5006290;28;20044;-73
2023/02/10 09:17:50;;;;;;;233.10;210.38;;;;;;;3.42;81.58;103489.72;5000978;28;20034;-72
2023/02/10 09:20:16;;;;;;;232.57;209.73;;;;;;;3.33;81.79;103493.31;5004965;28;20026;-70
2023/02/10 09:22:42;;;;;;;236.48;212.82;;;;;;;3.31;82.13;103495.25;5000377;28;20040;-70
2023/02/10 09:25:07;;;;;;;235.00;211.63;;;;;;;3.31;82.21;103500.56;5006199;28;20053;-74
2023/02/10 09:27:33;;;;;;;236.75;214.18;;;;;;;3.26;82.12;103500.22;4989737;28;20038;-72
2023/02/10 09:29:59;;;;;;;231.38;210.05;;;;;;;3.32;81.92;103498.72;5018472;28;20022;-73
2023/02/10 09:32:24;;;;;;;246.32;224.38;;;;;;;3.40;82.28;103499.66;5005146;28;20038;-72
2023/02/10 09:34:50;;;;;;;231.20;209.02;;;;;;;3.42;81.64;103492.38;5006134;28;20508;-73
2023/02/10 09:37:15;;;;;;;234.00;211.95;;;;;;;3.42;81.76;103489.72;5003989;28;20057;-73
2023/02/10 09:39:42;;;;;;;231.88;210.13;;;;;;;3.38;81.71;103491.00;4991926;28;20061;-71
2023/02/10 09:42:29;;;;;;;245.82;223.48;;;;;;;3.35;81.64;103496.63;4992829;28;20041;-71
2023/02/10 09:45:14;;;;;;;241.05;219.45;;;;;;;3.47;81.50;103495.38;5001128;28;20066;-71
2023/02/10 09:47:52;;;;;;;234.70;212.52;;;;;;;3.61;81.04;103493.16;5007148;28;20041;-73
2023/02/10 09:50:39;;;;;;;236.82;214.73;;;;;;;3.50;81.28;103502.19;5006185;28;20109;-72
2023/02/10 09:53:11;;;;;;;236.80;214.32;;;;;;;3.60;81.26;103494.16;5004805;28;20037;-71
2023/02/10 09:55:45;;;;;;;236.52;214.88;;;;;;;3.53;81.27;103489.47;5020335;28;20113;-74
2023/02/10 09:58:24;;;;;;;231.00;209.55;;;;;;;3.49;81.50;103498.72;5004526;28;20037;-72
2023/02/10 10:01:03;;;;;;;248.15;226.23;;;;;;;3.56;80.89;103489.16;5004195;28;20030;-74
2023/02/10 10:03:38;;;;;;;230.38;208.32;;;;;;;3.55;80.69;103500.75;4990313;28;20058;-73
2023/02/10 10:06:16;;;;;;;242.25;221.13;;;;;;;3.58;81.01;103498.75;4992230;28;20033;-73
2023/02/10 10:08:57;;;;;;;231.38;208.75;;;;;;;3.66;80.66;103504.09;4990478;28;20080;-74
2023/02/10 10:11:41;;;;;;;241.95;220.90;;;;;;;3.69;80.77;103502.00;5018025;28;20057;-71
2023/02/10 10:14:26;;;;;;;236.13;215.00;;;;;;;3.68;80.98;103505.63;4994384;28;20529;-72
2023/02/10 10:17:01;;;;;;;232.63;211.05;;;;;;;3.73;80.55;103507.81;5017019;28;20034;-73
2023/02/10 10:19:43;;;;;;;228.43;206.80;;;;;;;3.96;80.67;103500.97;5003004;28;20041;-72
2023/02/10 10:22:50;;;;;;;242.25;220.88;;;;;;;4.07;80.38;103506.03;5000222;28;20133;-72
2023/02/10 10:25:16;;;;;;;229.98;208.05;;;;;;;3.91;80.58;103500.63;5000713;28;20038;-73
2023/02/10 10:28:07;;;;;;;232.45;210.40;;;;;;;4.08;79.34;103498.88;5008521;28;20044;-74
2023/02/10 10:30:43;;;;;;;243.45;222.05;;;;;;;4.03;79.64;103507.31;4986960;28;20038;-73
2023/02/10 10:33:34;;;;;;;228.88;207.00;;;;;;;4.07;79.30;103498.06;4996200;28;20065;-72
2023/02/10 10:36:01;;;;;;;231.10;208.45;;;;;;;4.27;79.16;103500.47;4997237;28;21182;-73
2023/02/10 10:38:36;;;;;;;247.90;225.88;;;;;;;4.09;78.38;103511.97;4986347;28;20120;-72
2023/02/10 10:41:07;;;;;;;247.75;226.32;;;;;;;4.17;78.56;103507.69;5004391;28;20037;-73
2023/02/10 10:43:45;;;;;;;241.50;220.95;;;;;;;3.99;78.70;103516.56;5002718;28;20030;-71
2023/02/10 10:46:40;;;;;;;228.40;206.93;;;;;;;3.99;79.15;103516.56;5001722;28;20522;-72
2023/02/10 10:49:07;;;;;;;228.75;207.23;;;;;;;4.14;78.47;103511.53;5014729;28;20049;-72
2023/02/10 10:51:34;;;;;;;228.10;207.52;;;;;;;3.98;78.93;103509.59;4997541;28;20030;-72
2023/02/10 10:54:01;;;;;;;232.30;210.68;;;;;;;3.97;78.71;103510.59;4995366;28;20488;-72
2023/02/10 10:56:33;;;;;;;229.05;207.95;;;;;;;4.05;79.37;103502.66;4983797;28;20128;-72
2023/02/10 10:58:59;;;;;;;245.20;224.23;;;;;;;4.17;78.28;103502.41;5004161;28;20147;-72
2023/02/10 11:01:38;;;;;;;228.18;207.43;;;;;;;4.29;77.86;103482.56;5001388;28;20112;-71
2023/02/10 11:04:05;;;;;;;242.48;221.90;;;;;;;4.40;77.46;103487.53;4986791;28;20037;-71
2023/02/10 11:06:35;;;;;;;244.15;223.50;;;;;;;4.71;77.17;103487.81;5002260;28;20060;-71
2023/02/10 11:09:05;;;;;;;241.77;221.98;;;;;;;4.88;75.58;103486.00;4984338;28;20076;-71
2023/02/10 11:11:39;;;;;;;230.07;208.23;;;;;;;5.07;75.04;103476.88;4981231;28;20026;-71
2023/02/10 11:14:23;;;;;;;226.60;205.70;;;;;;;5.25;74.79;103485.50;5002362;28;20115;-72